sensor_id;sensor_type;location;lat;lon;timestamp;P1;durP1;ratioP1;P2;durP2;ratioP2
11996;SDS011;6058;48.704;9.474;2023-08-21T00:01:43;5.82;;;4.70;;
11996;SDS011;6058;48.704;9.474;2023-08-21T00:04:11;5.00;;;4.47;;
11996;SDS011;6058;48.704;9.474;2023-08-21T00:06:38;7.72;;;4.40;;
11996;SDS011;6058;48.704;9.474;2023-08-21T00:09:06;5.60;;;4.78;;
11996;SDS011;6058;48.704;9.474;2023-08-21T00:11:33;5.00;;;4.60;;
11996;SDS011;6058;48.704;9.474;2023-08-21T00:14:00;6.38;;;4.28;;
11996;SDS011;6058;48.704;9.474;2023-08-21T00:16:27;4.88;;;4.20;;
11996;SDS011;6058;48.704;9.474;2023-08-21T00:18:55;5.68;;;5.18;;
11996;SDS011;6058;48.704;9.474;2023-08-21T00:21:22;6.32;;;4.88;;
11996;SDS011;6058;48.704;9.474;2023-08-21T00:23:49;8.13;;;4.78;;
11996;SDS011;6058;48.704;9.474;2023-08-21T00:26:17;4.43;;;4.13;;
11996;SDS011;6058;48.704;9.474;2023-08-21T00:28:44;5.47;;;4.75;;
11996;SDS011;6058;48.704;9.474;2023-08-21T00:31:11;5.20;;;4.22;;
11996;SDS011;6058;48.704;9.474;2023-08-21T00:33:39;5.88;;;5.28;;
11996;SDS011;6058;48.704;9.474;2023-08-21T00:36:06;5.95;;;5.45;;
11996;SDS011;6058;48.704;9.474;2023-08-21T00:38:33;4.63;;;4.13;;
11996;SDS011;6058;48.704;9.474;2023-08-21T00:41:00;4.93;;;4.47;;
11996;SDS011;6058;48.704;9.474;2023-08-21T00:43:28;5.43;;;4.93;;
11996;SDS011;6058;48.704;9.474;2023-08-21T00:45:55;5.13;;;4.63;;
11996;SDS011;6058;48.704;9.474;2023-08-21T00:48:23;5.25;;;4.03;;
11996;SDS011;6058;48.704;9.474;2023-08-21T00:50:50;6.80;;;5.00;;
11996;SDS011;6058;48.704;9.474;2023-08-21T00:53:18;7.65;;;4.38;;
11996;SDS011;6058;48.704;9.474;2023-08-21T00:55:45;5.05;;;4.47;;
11996;SDS011;6058;48.704;9.474;2023-08-21T00:58:12;6.70;;;4.22;;
11996;SDS011;6058;48.704;9.474;2023-08-21T01:00:41;5.10;;;4.57;;
11996;SDS011;6058;48.704;9.474;2023-08-21T01:03:08;5.90;;;4.80;;
11996;SDS011;6058;48.704;9.474;2023-08-21T01:05:36;8.35;;;5.38;;
11996;SDS011;6058;48.704;9.474;2023-08-21T01:08:04;7.10;;;5.78;;
11996;SDS011;6058;48.704;9.474;2023-08-21T01:10:49;7.38;;;5.63;;
11996;SDS011;6058;48.704;9.474;2023-08-21T01:13:19;13.85;;;5.40;;
11996;SDS011;6058;48.704;9.474;2023-08-21T01:15:51;8.13;;;5.68;;
11996;SDS011;6058;48.704;9.474;2023-08-21T01:18:20;10.75;;;5.35;;
11996;SDS011;6058;48.704;9.474;2023-08-21T01:20:48;11.13;;;6.47;;
11996;SDS011;6058;48.704;9.474;2023-08-21T01:26:05;10.57;;;5.50;;
11996;SDS011;6058;48.704;9.474;2023-08-21T01:28:33;4.70;;;4.30;;
11996;SDS011;6058;48.704;9.474;2023-08-21T01:31:03;6.93;;;5.28;;
11996;SDS011;6058;48.704;9.474;2023-08-21T01:33:33;5.25;;;4.75;;
11996;SDS011;6058;48.704;9.474;2023-08-21T01:36:01;4.70;;;4.30;;
11996;SDS011;6058;48.704;9.474;2023-08-21T01:38:30;7.28;;;4.38;;
11996;SDS011;6058;48.704;9.474;2023-08-21T01:40:57;5.03;;;4.53;;
11996;SDS011;6058;48.704;9.474;2023-08-21T01:43:26;5.40;;;4.90;;
11996;SDS011;6058;48.704;9.474;2023-08-21T01:45:53;4.00;;;3.65;;
11996;SDS011;6058;48.704;9.474;2023-08-21T01:48:20;6.78;;;4.63;;
11996;SDS011;6058;48.704;9.474;2023-08-21T01:50:47;5.40;;;4.90;;
11996;SDS011;6058;48.704;9.474;2023-08-21T01:53:15;8.10;;;4.82;;
11996;SDS011;6058;48.704;9.474;2023-08-21T01:55:42;5.45;;;4.95;;
11996;SDS011;6058;48.704;9.474;2023-08-21T01:58:09;5.25;;;4.40;;
11996;SDS011;6058;48.704;9.474;2023-08-21T02:00:37;8.73;;;5.53;;
11996;SDS011;6058;48.704;9.474;2023-08-21T02:03:05;3.90;;;3.60;;
11996;SDS011;6058;48.704;9.474;2023-08-21T02:05:36;8.02;;;5.55;;
11996;SDS011;6058;48.704;9.474;2023-08-21T02:08:04;6.50;;;4.78;;
11996;SDS011;6058;48.704;9.474;2023-08-21T02:10:31;4.45;;;4.05;;
11996;SDS011;6058;48.704;9.474;2023-08-21T02:12:58;4.18;;;3.88;;
11996;SDS011;6058;48.704;9.474;2023-08-21T02:15:26;4.45;;;4.05;;
11996;SDS011;6058;48.704;9.474;2023-08-21T02:17:54;7.10;;;4.88;;
11996;SDS011;6058;48.704;9.474;2023-08-21T02:20:21;5.25;;;4.20;;
11996;SDS011;6058;48.704;9.474;2023-08-21T02:22:48;5.00;;;4.45;;
11996;SDS011;6058;48.704;9.474;2023-08-21T02:25:15;4.00;;;3.70;;
11996;SDS011;6058;48.704;9.474;2023-08-21T02:27:42;4.35;;;3.97;;
11996;SDS011;6058;48.704;9.474;2023-08-21T02:30:10;4.20;;;3.90;;
11996;SDS011;6058;48.704;9.474;2023-08-21T02:32:37;5.72;;;4.53;;
11996;SDS011;6058;48.704;9.474;2023-08-21T02:35:07;5.63;;;3.88;;
11996;SDS011;6058;48.704;9.474;2023-08-21T02:37:35;7.15;;;5.28;;
11996;SDS011;6058;48.704;9.474;2023-08-21T02:40:05;6.20;;;4.22;;
11996;SDS011;6058;48.704;9.474;2023-08-21T02:42:34;5.30;;;4.80;;
11996;SDS011;6058;48.704;9.474;2023-08-21T02:45:01;4.90;;;4.50;;
11996;SDS011;6058;48.704;9.474;2023-08-21T02:47:33;5.20;;;4.65;;
11996;SDS011;6058;48.704;9.474;2023-08-21T02:50:00;6.15;;;4.78;;
11996;SDS011;6058;48.704;9.474;2023-08-21T02:52:29;5.18;;;4.68;;
11996;SDS011;6058;48.704;9.474;2023-08-21T02:54:56;4.30;;;3.90;;
11996;SDS011;6058;48.704;9.474;2023-08-21T02:57:24;3.88;;;3.58;;
11996;SDS011;6058;48.704;9.474;2023-08-21T02:59:51;4.70;;;4.13;;
11996;SDS011;6058;48.704;9.474;2023-08-21T03:02:18;4.45;;;4.07;;
11996;SDS011;6058;48.704;9.474;2023-08-21T03:04:45;4.80;;;4.35;;
11996;SDS011;6058;48.704;9.474;2023-08-21T03:07:13;4.93;;;4.53;;
11996;SDS011;6058;48.704;9.474;2023-08-21T03:09:41;4.78;;;4.30;;
11996;SDS011;6058;48.704;9.474;2023-08-21T03:12:08;3.78;;;3.47;;
11996;SDS011;6058;48.704;9.474;2023-08-21T03:14:36;4.50;;;4.20;;
11996;SDS011;6058;48.704;9.474;2023-08-21T03:17:03;5.68;;;3.92;;
11996;SDS011;6058;48.704;9.474;2023-08-21T03:19:30;4.68;;;4.20;;
11996;SDS011;6058;48.704;9.474;2023-08-21T03:21:57;4.30;;;3.90;;
11996;SDS011;6058;48.704;9.474;2023-08-21T03:24:24;5.78;;;4.47;;
11996;SDS011;6058;48.704;9.474;2023-08-21T03:26:53;6.20;;;4.93;;
11996;SDS011;6058;48.704;9.474;2023-08-21T03:29:20;5.60;;;4.53;;
11996;SDS011;6058;48.704;9.474;2023-08-21T03:31:49;5.68;;;5.10;;
11996;SDS011;6058;48.704;9.474;2023-08-21T03:34:16;7.30;;;4.38;;
11996;SDS011;6058;48.704;9.474;2023-08-21T03:36:43;4.53;;;4.22;;
11996;SDS011;6058;48.704;9.474;2023-08-21T03:39:11;9.20;;;6.20;;
11996;SDS011;6058;48.704;9.474;2023-08-21T03:41:38;5.47;;;4.93;;
11996;SDS011;6058;48.704;9.474;2023-08-21T03:44:06;5.95;;;4.80;;
11996;SDS011;6058;48.704;9.474;2023-08-21T03:46:33;5.47;;;4.85;;
11996;SDS011;6058;48.704;9.474;2023-08-21T03:49:01;6.00;;;4.90;;
11996;SDS011;6058;48.704;9.474;2023-08-21T03:51:28;5.60;;;5.10;;
11996;SDS011;6058;48.704;9.474;2023-08-21T03:53:55;6.47;;;4.57;;
11996;SDS011;6058;48.704;9.474;2023-08-21T03:56:22;7.18;;;4.53;;
11996;SDS011;6058;48.704;9.474;2023-08-21T03:58:50;4.90;;;4.50;;
11996;SDS011;6058;48.704;9.474;2023-08-21T04:01:18;4.90;;;4.32;;
11996;SDS011;6058;48.704;9.474;2023-08-21T04:03:45;6.10;;;4.32;;
11996;SDS011;6058;48.704;9.474;2023-08-21T04:06:12;4.63;;;4.07;;
11996;SDS011;6058;48.704;9.474;2023-08-21T04:08:39;4.65;;;3.58;;
11996;SDS011;6058;48.704;9.474;2023-08-21T04:11:06;6.97;;;4.75;;
11996;SDS011;6058;48.704;9.474;2023-08-21T04:13:34;4.97;;;4.10;;
11996;SDS011;6058;48.704;9.474;2023-08-21T04:16:01;4.10;;;3.53;;
11996;SDS011;6058;48.704;9.474;2023-08-21T04:18:29;4.88;;;4.10;;
11996;SDS011;6058;48.704;9.474;2023-08-21T04:20:56;4.80;;;4.32;;
11996;SDS011;6058;48.704;9.474;2023-08-21T04:23:23;4.22;;;3.70;;
11996;SDS011;6058;48.704;9.474;2023-08-21T04:25:50;5.63;;;3.40;;
11996;SDS011;6058;48.704;9.474;2023-08-21T04:28:18;4.28;;;3.90;;
11996;SDS011;6058;48.704;9.474;2023-08-21T04:30:45;3.55;;;3.25;;
11996;SDS011;6058;48.704;9.474;2023-08-21T04:33:12;4.80;;;4.30;;
11996;SDS011;6058;48.704;9.474;2023-08-21T04:35:40;4.72;;;3.92;;
11996;SDS011;6058;48.704;9.474;2023-08-21T04:38:08;6.45;;;4.57;;
11996;SDS011;6058;48.704;9.474;2023-08-21T04:40:38;5.00;;;4.60;;
11996;SDS011;6058;48.704;9.474;2023-08-21T04:43:05;5.30;;;4.40;;
11996;SDS011;6058;48.704;9.474;2023-08-21T04:45:32;8.55;;;4.28;;
11996;SDS011;6058;48.704;9.474;2023-08-21T04:47:59;5.43;;;4.43;;
11996;SDS011;6058;48.704;9.474;2023-08-21T04:50:29;4.78;;;4.15;;
11996;SDS011;6058;48.704;9.474;2023-08-21T04:52:57;6.30;;;4.50;;
11996;SDS011;6058;48.704;9.474;2023-08-21T04:55:25;8.48;;;5.00;;
11996;SDS011;6058;48.704;9.474;2023-08-21T04:57:52;6.43;;;4.90;;
11996;SDS011;6058;48.704;9.474;2023-08-21T05:00:19;5.22;;;4.72;;
11996;SDS011;6058;48.704;9.474;2023-08-21T05:02:49;5.35;;;4.57;;
11996;SDS011;6058;48.704;9.474;2023-08-21T05:05:17;7.50;;;4.60;;
11996;SDS011;6058;48.704;9.474;2023-08-21T05:07:44;6.40;;;4.70;;
11996;SDS011;6058;48.704;9.474;2023-08-21T05:10:12;4.55;;;4.15;;
11996;SDS011;6058;48.704;9.474;2023-08-21T05:12:39;5.05;;;4.55;;
11996;SDS011;6058;48.704;9.474;2023-08-21T05:15:07;4.35;;;3.95;;
11996;SDS011;6058;48.704;9.474;2023-08-21T05:17:34;11.50;;;5.25;;
11996;SDS011;6058;48.704;9.474;2023-08-21T05:20:01;7.70;;;4.80;;
11996;SDS011;6058;48.704;9.474;2023-08-21T05:22:28;5.43;;;4.93;;
11996;SDS011;6058;48.704;9.474;2023-08-21T05:24:55;6.85;;;5.88;;
11996;SDS011;6058;48.704;9.474;2023-08-21T05:27:24;5.45;;;4.65;;
11996;SDS011;6058;48.704;9.474;2023-08-21T05:29:51;4.32;;;3.92;;
11996;SDS011;6058;48.704;9.474;2023-08-21T05:32:18;4.35;;;3.95;;
11996;SDS011;6058;48.704;9.474;2023-08-21T05:34:45;5.50;;;4.20;;
11996;SDS011;6058;48.704;9.474;2023-08-21T05:37:12;4.30;;;3.90;;
11996;SDS011;6058;48.704;9.474;2023-08-21T05:39:40;4.10;;;3.70;;
11996;SDS011;6058;48.704;9.474;2023-08-21T05:42:07;5.53;;;4.18;;
11996;SDS011;6058;48.704;9.474;2023-08-21T05:44:35;4.57;;;4.18;;
11996;SDS011;6058;48.704;9.474;2023-08-21T05:47:02;5.18;;;4.70;;
11996;SDS011;6058;48.704;9.474;2023-08-21T05:49:33;4.38;;;3.97;;
11996;SDS011;6058;48.704;9.474;2023-08-21T05:52:00;4.93;;;4.50;;
11996;SDS011;6058;48.704;9.474;2023-08-21T05:54:27;5.22;;;4.72;;
11996;SDS011;6058;48.704;9.474;2023-08-21T05:56:55;5.47;;;4.97;;
11996;SDS011;6058;48.704;9.474;2023-08-21T05:59:26;5.30;;;4.75;;
11996;SDS011;6058;48.704;9.474;2023-08-21T06:01:55;5.03;;;4.63;;
11996;SDS011;6058;48.704;9.474;2023-08-21T06:04:23;5.88;;;5.35;;
11996;SDS011;6058;48.704;9.474;2023-08-21T06:06:50;6.35;;;5.32;;
11996;SDS011;6058;48.704;9.474;2023-08-21T06:09:17;6.15;;;5.57;;
11996;SDS011;6058;48.704;9.474;2023-08-21T06:11:44;4.95;;;4.55;;
11996;SDS011;6058;48.704;9.474;2023-08-21T06:14:11;5.75;;;5.25;;
11996;SDS011;6058;48.704;9.474;2023-08-21T06:16:39;8.45;;;5.85;;
11996;SDS011;6058;48.704;9.474;2023-08-21T06:19:07;6.45;;;5.85;;
11996;SDS011;6058;48.704;9.474;2023-08-21T06:21:34;6.28;;;5.68;;
11996;SDS011;6058;48.704;9.474;2023-08-21T06:24:01;7.22;;;6.03;;
11996;SDS011;6058;48.704;9.474;2023-08-21T06:26:28;6.53;;;5.93;;
11996;SDS011;6058;48.704;9.474;2023-08-21T06:28:55;8.43;;;6.00;;
11996;SDS011;6058;48.704;9.474;2023-08-21T06:31:23;8.45;;;6.35;;
11996;SDS011;6058;48.704;9.474;2023-08-21T06:33:50;6.38;;;5.85;;
11996;SDS011;6058;48.704;9.474;2023-08-21T06:36:18;6.38;;;5.78;;
11996;SDS011;6058;48.704;9.474;2023-08-21T06:38:45;6.57;;;5.93;;
11996;SDS011;6058;48.704;9.474;2023-08-21T06:41:12;6.65;;;5.70;;
11996;SDS011;6058;48.704;9.474;2023-08-21T06:43:42;7.63;;;6.45;;
11996;SDS011;6058;48.704;9.474;2023-08-21T06:46:09;5.63;;;4.70;;
11996;SDS011;6058;48.704;9.474;2023-08-21T06:48:37;5.15;;;4.75;;
11996;SDS011;6058;48.704;9.474;2023-08-21T06:51:05;8.48;;;6.53;;
11996;SDS011;6058;48.704;9.474;2023-08-21T06:53:34;6.85;;;6.15;;
11996;SDS011;6058;48.704;9.474;2023-08-21T06:56:01;7.50;;;6.80;;
11996;SDS011;6058;48.704;9.474;2023-08-21T06:58:28;7.43;;;6.47;;
11996;SDS011;6058;48.704;9.474;2023-08-21T07:00:56;7.00;;;6.30;;
11996;SDS011;6058;48.704;9.474;2023-08-21T07:03:23;7.28;;;6.55;;
11996;SDS011;6058;48.704;9.474;2023-08-21T07:05:53;8.20;;;6.65;;
11996;SDS011;6058;48.704;9.474;2023-08-21T07:08:21;7.65;;;6.85;;
11996;SDS011;6058;48.704;9.474;2023-08-21T07:10:49;7.88;;;6.85;;
11996;SDS011;6058;48.704;9.474;2023-08-21T07:13:17;8.00;;;7.28;;
11996;SDS011;6058;48.704;9.474;2023-08-21T07:15:44;8.45;;;6.82;;
11996;SDS011;6058;48.704;9.474;2023-08-21T07:18:11;8.38;;;6.60;;
11996;SDS011;6058;48.704;9.474;2023-08-21T07:20:38;7.82;;;6.43;;
11996;SDS011;6058;48.704;9.474;2023-08-21T07:23:05;10.68;;;6.38;;
11996;SDS011;6058;48.704;9.474;2023-08-21T07:25:33;7.60;;;6.80;;
11996;SDS011;6058;48.704;9.474;2023-08-21T07:28:01;7.30;;;6.60;;
11996;SDS011;6058;48.704;9.474;2023-08-21T07:30:28;8.05;;;6.20;;
11996;SDS011;6058;48.704;9.474;2023-08-21T07:32:55;7.75;;;6.70;;
11996;SDS011;6058;48.704;9.474;2023-08-21T07:35:23;6.75;;;6.15;;
11996;SDS011;6058;48.704;9.474;2023-08-21T07:37:50;7.43;;;6.72;;
11996;SDS011;6058;48.704;9.474;2023-08-21T07:40:17;7.20;;;5.82;;
11996;SDS011;6058;48.704;9.474;2023-08-21T07:42:44;9.68;;;7.18;;
11996;SDS011;6058;48.704;9.474;2023-08-21T07:45:12;7.88;;;7.10;;
11996;SDS011;6058;48.704;9.474;2023-08-21T07:47:40;8.88;;;6.70;;
11996;SDS011;6058;48.704;9.474;2023-08-21T07:50:07;9.80;;;7.20;;
11996;SDS011;6058;48.704;9.474;2023-08-21T07:52:35;8.40;;;7.60;;
11996;SDS011;6058;48.704;9.474;2023-08-21T07:55:02;7.97;;;7.18;;
11996;SDS011;6058;48.704;9.474;2023-08-21T07:57:29;8.20;;;7.40;;
11996;SDS011;6058;48.704;9.474;2023-08-21T07:59:56;12.55;;;6.82;;
11996;SDS011;6058;48.704;9.474;2023-08-21T08:02:25;8.88;;;6.93;;
11996;SDS011;6058;48.704;9.474;2023-08-21T08:04:52;7.40;;;6.45;;
11996;SDS011;6058;48.704;9.474;2023-08-21T08:07:19;8.15;;;7.45;;
11996;SDS011;6058;48.704;9.474;2023-08-21T08:09:46;7.43;;;6.50;;
11996;SDS011;6058;48.704;9.474;2023-08-21T08:12:13;8.85;;;6.97;;
11996;SDS011;6058;48.704;9.474;2023-08-21T08:14:40;6.75;;;6.13;;
11996;SDS011;6058;48.704;9.474;2023-08-21T08:17:07;6.47;;;5.88;;
11996;SDS011;6058;48.704;9.474;2023-08-21T08:19:36;9.77;;;6.60;;
11996;SDS011;6058;48.704;9.474;2023-08-21T08:22:03;8.77;;;7.88;;
11996;SDS011;6058;48.704;9.474;2023-08-21T08:24:30;8.35;;;6.25;;
11996;SDS011;6058;48.704;9.474;2023-08-21T08:26:57;8.05;;;7.25;;
11996;SDS011;6058;48.704;9.474;2023-08-21T08:29:24;7.43;;;6.70;;
11996;SDS011;6058;48.704;9.474;2023-08-21T08:31:52;10.30;;;8.48;;
11996;SDS011;6058;48.704;9.474;2023-08-21T08:34:19;9.68;;;7.65;;
11996;SDS011;6058;48.704;9.474;2023-08-21T08:36:47;8.20;;;7.40;;
11996;SDS011;6058;48.704;9.474;2023-08-21T08:39:14;8.15;;;7.40;;
11996;SDS011;6058;48.704;9.474;2023-08-21T08:41:44;8.27;;;7.38;;
11996;SDS011;6058;48.704;9.474;2023-08-21T08:44:15;7.25;;;6.55;;
11996;SDS011;6058;48.704;9.474;2023-08-21T08:46:43;8.00;;;7.18;;
11996;SDS011;6058;48.704;9.474;2023-08-21T08:49:10;8.48;;;7.05;;
11996;SDS011;6058;48.704;9.474;2023-08-21T08:51:37;7.18;;;6.57;;
11996;SDS011;6058;48.704;9.474;2023-08-21T08:54:06;7.90;;;6.65;;
11996;SDS011;6058;48.704;9.474;2023-08-21T08:56:33;7.15;;;6.50;;
11996;SDS011;6058;48.704;9.474;2023-08-21T08:59:05;7.82;;;7.03;;
11996;SDS011;6058;48.704;9.474;2023-08-21T09:01:32;7.72;;;6.90;;
11996;SDS011;6058;48.704;9.474;2023-08-21T09:03:59;7.32;;;6.53;;
11996;SDS011;6058;48.704;9.474;2023-08-21T09:06:27;6.90;;;6.28;;
11996;SDS011;6058;48.704;9.474;2023-08-21T09:08:54;7.10;;;5.80;;
11996;SDS011;6058;48.704;9.474;2023-08-21T09:11:23;6.95;;;6.25;;
11996;SDS011;6058;48.704;9.474;2023-08-21T09:13:51;7.70;;;6.65;;
11996;SDS011;6058;48.704;9.474;2023-08-21T09:16:19;7.72;;;6.18;;
11996;SDS011;6058;48.704;9.474;2023-08-21T09:18:47;10.82;;;6.40;;
11996;SDS011;6058;48.704;9.474;2023-08-21T09:21:15;6.55;;;6.00;;
11996;SDS011;6058;48.704;9.474;2023-08-21T09:23:42;8.30;;;6.13;;
11996;SDS011;6058;48.704;9.474;2023-08-21T09:26:10;10.00;;;6.50;;
11996;SDS011;6058;48.704;9.474;2023-08-21T09:28:39;10.30;;;6.28;;
11996;SDS011;6058;48.704;9.474;2023-08-21T09:31:06;6.88;;;6.18;;
11996;SDS011;6058;48.704;9.474;2023-08-21T09:33:33;8.07;;;6.60;;
11996;SDS011;6058;48.704;9.474;2023-08-21T09:36:00;7.03;;;6.32;;
11996;SDS011;6058;48.704;9.474;2023-08-21T09:38:28;9.38;;;6.70;;
11996;SDS011;6058;48.704;9.474;2023-08-21T09:40:55;8.18;;;6.65;;
11996;SDS011;6058;48.704;9.474;2023-08-21T09:43:22;7.40;;;6.60;;
11996;SDS011;6058;48.704;9.474;2023-08-21T09:45:52;8.40;;;6.63;;
11996;SDS011;6058;48.704;9.474;2023-08-21T09:48:20;7.53;;;6.75;;
11996;SDS011;6058;48.704;9.474;2023-08-21T09:50:48;7.13;;;6.43;;
11996;SDS011;6058;48.704;9.474;2023-08-21T09:53:16;9.57;;;6.57;;
11996;SDS011;6058;48.704;9.474;2023-08-21T09:55:43;7.57;;;5.97;;
11996;SDS011;6058;48.704;9.474;2023-08-21T09:58:10;9.98;;;6.40;;
11996;SDS011;6058;48.704;9.474;2023-08-21T10:00:38;7.03;;;6.30;;
11996;SDS011;6058;48.704;9.474;2023-08-21T10:03:07;10.73;;;6.53;;
11996;SDS011;6058;48.704;9.474;2023-08-21T10:05:35;8.30;;;6.70;;
11996;SDS011;6058;48.704;9.474;2023-08-21T10:08:03;9.93;;;7.00;;
11996;SDS011;6058;48.704;9.474;2023-08-21T10:10:31;8.20;;;6.55;;
11996;SDS011;6058;48.704;9.474;2023-08-21T10:12:58;6.53;;;6.03;;
11996;SDS011;6058;48.704;9.474;2023-08-21T10:15:26;7.28;;;6.57;;
11996;SDS011;6058;48.704;9.474;2023-08-21T10:17:56;6.70;;;6.10;;
11996;SDS011;6058;48.704;9.474;2023-08-21T10:20:25;8.02;;;7.22;;
11996;SDS011;6058;48.704;9.474;2023-08-21T10:22:53;10.30;;;6.70;;
11996;SDS011;6058;48.704;9.474;2023-08-21T10:25:22;7.63;;;6.35;;
11996;SDS011;6058;48.704;9.474;2023-08-21T10:27:51;8.32;;;6.22;;
11996;SDS011;6058;48.704;9.474;2023-08-21T10:30:22;6.88;;;6.05;;
11996;SDS011;6058;48.704;9.474;2023-08-21T10:32:50;7.07;;;6.38;;
11996;SDS011;6058;48.704;9.474;2023-08-21T10:35:18;6.70;;;5.97;;
11996;SDS011;6058;48.704;9.474;2023-08-21T10:40:33;6.15;;;5.40;;
11996;SDS011;6058;48.704;9.474;2023-08-21T10:43:00;6.22;;;5.70;;
11996;SDS011;6058;48.704;9.474;2023-08-21T10:45:28;9.68;;;8.35;;
11996;SDS011;6058;48.704;9.474;2023-08-21T10:47:56;8.20;;;6.13;;
11996;SDS011;6058;48.704;9.474;2023-08-21T10:50:23;13.27;;;6.00;;
11996;SDS011;6058;48.704;9.474;2023-08-21T10:52:51;7.28;;;5.97;;
11996;SDS011;6058;48.704;9.474;2023-08-21T10:55:18;7.75;;;5.20;;
11996;SDS011;6058;48.704;9.474;2023-08-21T10:57:47;6.15;;;5.65;;
11996;SDS011;6058;48.704;9.474;2023-08-21T11:00:15;8.95;;;5.50;;
11996;SDS011;6058;48.704;9.474;2023-08-21T11:02:43;7.00;;;5.95;;
11996;SDS011;6058;48.704;9.474;2023-08-21T11:05:11;6.30;;;5.70;;
11996;SDS011;6058;48.704;9.474;2023-08-21T11:10:07;9.68;;;5.95;;
11996;SDS011;6058;48.704;9.474;2023-08-21T11:12:34;9.05;;;6.03;;
11996;SDS011;6058;48.704;9.474;2023-08-21T11:15:04;8.13;;;5.78;;
11996;SDS011;6058;48.704;9.474;2023-08-21T11:17:31;6.53;;;5.72;;
11996;SDS011;6058;48.704;9.474;2023-08-21T11:20:00;7.93;;;5.55;;
11996;SDS011;6058;48.704;9.474;2023-08-21T11:22:28;8.80;;;6.38;;
11996;SDS011;6058;48.704;9.474;2023-08-21T11:24:56;8.57;;;5.55;;
11996;SDS011;6058;48.704;9.474;2023-08-21T11:27:23;7.30;;;5.78;;
11996;SDS011;6058;48.704;9.474;2023-08-21T11:29:51;6.68;;;5.97;;
11996;SDS011;6058;48.704;9.474;2023-08-21T11:32:20;6.32;;;5.82;;
11996;SDS011;6058;48.704;9.474;2023-08-21T11:34:50;6.18;;;5.68;;
11996;SDS011;6058;48.704;9.474;2023-08-21T11:37:17;6.75;;;5.72;;
11996;SDS011;6058;48.704;9.474;2023-08-21T11:39:45;8.18;;;5.97;;
11996;SDS011;6058;48.704;9.474;2023-08-21T11:42:12;7.47;;;5.97;;
11996;SDS011;6058;48.704;9.474;2023-08-21T11:44:43;7.00;;;6.30;;
11996;SDS011;6058;48.704;9.474;2023-08-21T11:47:11;6.32;;;5.72;;
11996;SDS011;6058;48.704;9.474;2023-08-21T11:49:40;6.60;;;6.00;;
11996;SDS011;6058;48.704;9.474;2023-08-21T11:52:08;7.65;;;6.10;;
11996;SDS011;6058;48.704;9.474;2023-08-21T11:54:36;6.05;;;5.40;;
11996;SDS011;6058;48.704;9.474;2023-08-21T11:57:04;6.13;;;5.53;;
11996;SDS011;6058;48.704;9.474;2023-08-21T11:59:31;8.13;;;6.10;;
11996;SDS011;6058;48.704;9.474;2023-08-21T12:01:58;5.68;;;5.15;;
11996;SDS011;6058;48.704;9.474;2023-08-21T12:04:26;8.38;;;6.15;;
11996;SDS011;6058;48.704;9.474;2023-08-21T12:06:54;9.10;;;6.00;;
11996;SDS011;6058;48.704;9.474;2023-08-21T12:09:21;7.28;;;5.93;;
11996;SDS011;6058;48.704;9.474;2023-08-21T12:11:49;8.05;;;6.32;;
11996;SDS011;6058;48.704;9.474;2023-08-21T12:14:16;8.35;;;5.70;;
11996;SDS011;6058;48.704;9.474;2023-08-21T12:16:43;6.93;;;6.25;;
11996;SDS011;6058;48.704;9.474;2023-08-21T12:19:10;8.15;;;5.80;;
11996;SDS011;6058;48.704;9.474;2023-08-21T12:21:39;9.13;;;6.22;;
11996;SDS011;6058;48.704;9.474;2023-08-21T12:24:08;7.82;;;6.05;;
11996;SDS011;6058;48.704;9.474;2023-08-21T12:26:35;6.30;;;5.70;;
11996;SDS011;6058;48.704;9.474;2023-08-21T12:29:02;11.48;;;6.65;;
11996;SDS011;6058;48.704;9.474;2023-08-21T12:31:29;6.25;;;5.75;;
11996;SDS011;6058;48.704;9.474;2023-08-21T12:33:56;6.18;;;5.57;;
11996;SDS011;6058;48.704;9.474;2023-08-21T12:36:24;10.07;;;5.97;;
11996;SDS011;6058;48.704;9.474;2023-08-21T12:38:51;6.35;;;5.75;;
11996;SDS011;6058;48.704;9.474;2023-08-21T12:41:20;6.82;;;5.82;;
11996;SDS011;6058;48.704;9.474;2023-08-21T12:43:47;6.47;;;5.53;;
11996;SDS011;6058;48.704;9.474;2023-08-21T12:46:14;6.15;;;5.55;;
11996;SDS011;6058;48.704;9.474;2023-08-21T12:48:41;7.57;;;5.93;;
11996;SDS011;6058;48.704;9.474;2023-08-21T12:51:08;6.85;;;6.15;;
11996;SDS011;6058;48.704;9.474;2023-08-21T12:53:36;6.75;;;5.60;;
11996;SDS011;6058;48.704;9.474;2023-08-21T12:56:03;8.10;;;5.22;;
11996;SDS011;6058;48.704;9.474;2023-08-21T12:58:31;7.45;;;6.18;;
11996;SDS011;6058;48.704;9.474;2023-08-21T13:00:58;9.15;;;6.07;;
11996;SDS011;6058;48.704;9.474;2023-08-21T13:03:33;7.22;;;5.50;;
11996;SDS011;6058;48.704;9.474;2023-08-21T13:06:00;6.72;;;5.22;;
11996;SDS011;6058;48.704;9.474;2023-08-21T13:08:28;5.88;;;5.32;;
11996;SDS011;6058;48.704;9.474;2023-08-21T13:10:55;9.65;;;5.60;;
11996;SDS011;6058;48.704;9.474;2023-08-21T13:13:22;7.05;;;5.78;;
11996;SDS011;6058;48.704;9.474;2023-08-21T13:15:50;6.68;;;5.50;;
11996;SDS011;6058;48.704;9.474;2023-08-21T13:18:19;6.68;;;5.07;;
11996;SDS011;6058;48.704;9.474;2023-08-21T13:20:46;5.80;;;5.20;;
11996;SDS011;6058;48.704;9.474;2023-08-21T13:23:13;7.47;;;5.15;;
11996;SDS011;6058;48.704;9.474;2023-08-21T13:25:40;5.90;;;5.32;;
11996;SDS011;6058;48.704;9.474;2023-08-21T13:28:07;7.25;;;5.13;;
11996;SDS011;6058;48.704;9.474;2023-08-21T13:30:35;6.90;;;5.07;;
11996;SDS011;6058;48.704;9.474;2023-08-21T13:33:04;10.90;;;5.13;;
11996;SDS011;6058;48.704;9.474;2023-08-21T13:35:31;9.18;;;5.25;;
11996;SDS011;6058;48.704;9.474;2023-08-21T13:37:58;6.13;;;5.05;;
11996;SDS011;6058;48.704;9.474;2023-08-21T13:40:26;5.53;;;5.03;;
11996;SDS011;6058;48.704;9.474;2023-08-21T13:42:54;8.30;;;5.03;;
11996;SDS011;6058;48.704;9.474;2023-08-21T13:45:24;9.98;;;5.38;;
11996;SDS011;6058;48.704;9.474;2023-08-21T13:47:51;7.15;;;4.90;;
11996;SDS011;6058;48.704;9.474;2023-08-21T13:50:24;6.25;;;5.65;;
11996;SDS011;6058;48.704;9.474;2023-08-21T13:52:51;7.68;;;4.70;;
11996;SDS011;6058;48.704;9.474;2023-08-21T13:55:18;6.70;;;4.82;;
11996;SDS011;6058;48.704;9.474;2023-08-21T13:57:45;8.23;;;5.32;;
11996;SDS011;6058;48.704;9.474;2023-08-21T14:00:13;8.50;;;5.50;;
11996;SDS011;6058;48.704;9.474;2023-08-21T14:02:44;8.52;;;5.32;;
11996;SDS011;6058;48.704;9.474;2023-08-21T14:05:12;7.70;;;6.60;;
11996;SDS011;6058;48.704;9.474;2023-08-21T14:07:41;5.38;;;4.70;;
11996;SDS011;6058;48.704;9.474;2023-08-21T14:10:08;5.40;;;4.78;;
11996;SDS011;6058;48.704;9.474;2023-08-21T14:12:35;10.43;;;5.32;;
11996;SDS011;6058;48.704;9.474;2023-08-21T14:15:03;6.80;;;4.93;;
11996;SDS011;6058;48.704;9.474;2023-08-21T14:17:30;5.13;;;4.63;;
11996;SDS011;6058;48.704;9.474;2023-08-21T14:19:57;5.45;;;4.95;;
11996;SDS011;6058;48.704;9.474;2023-08-21T14:22:24;6.10;;;4.90;;
11996;SDS011;6058;48.704;9.474;2023-08-21T14:24:53;7.10;;;4.78;;
11996;SDS011;6058;48.704;9.474;2023-08-21T14:27:20;6.25;;;5.05;;
11996;SDS011;6058;48.704;9.474;2023-08-21T14:29:48;5.55;;;4.63;;
11996;SDS011;6058;48.704;9.474;2023-08-21T14:32:15;6.22;;;4.88;;
11996;SDS011;6058;48.704;9.474;2023-08-21T14:34:42;5.28;;;4.55;;
11996;SDS011;6058;48.704;9.474;2023-08-21T14:37:10;11.57;;;5.18;;
11996;SDS011;6058;48.704;9.474;2023-08-21T14:39:40;8.57;;;4.60;;
11996;SDS011;6058;48.704;9.474;2023-08-21T14:42:09;9.32;;;5.10;;
11996;SDS011;6058;48.704;9.474;2023-08-21T14:44:36;5.80;;;4.88;;
11996;SDS011;6058;48.704;9.474;2023-08-21T14:47:03;8.18;;;4.85;;
11996;SDS011;6058;48.704;9.474;2023-08-21T14:49:30;8.27;;;4.93;;
11996;SDS011;6058;48.704;9.474;2023-08-21T14:51:58;5.95;;;4.43;;
11996;SDS011;6058;48.704;9.474;2023-08-21T14:54:25;8.43;;;4.57;;
11996;SDS011;6058;48.704;9.474;2023-08-21T14:56:52;6.80;;;4.70;;
11996;SDS011;6058;48.704;9.474;2023-08-21T14:59:21;6.38;;;5.55;;
11996;SDS011;6058;48.704;9.474;2023-08-21T15:01:48;5.93;;;4.38;;
11996;SDS011;6058;48.704;9.474;2023-08-21T15:04:15;5.53;;;5.03;;
11996;SDS011;6058;48.704;9.474;2023-08-21T15:06:44;7.15;;;5.15;;
11996;SDS011;6058;48.704;9.474;2023-08-21T15:09:12;6.05;;;4.75;;
11996;SDS011;6058;48.704;9.474;2023-08-21T15:11:39;5.05;;;4.53;;